Observations for BOSCOMBE DOWN, United Kingdom (EGDM)

EGDM 180450Z AUTO 25008KT 9999 FEW006/// BKN019/// 13/12 Q1018  
EGDM 180350Z AUTO 25007KT 9999 FEW005/// BKN018/// 13/12 Q1017  
EGDM 180250Z AUTO 25007KT 6000 BR SCT006/// BKN016/// 14/13 Q1017   
EGDM 180150Z AUTO 27009KT 9999 SCT009/// BKN020/// 14/13 Q1017 RERA 
EGDM 180050Z AUTO 26015KT 9999 -RA SCT006/// BKN021/// 15/14 Q1017  
EGDM 172350Z AUTO 22006KT 3300 BR BKN002/// BKN014/// 15/15 Q1017   
EGDM 172250Z AUTO 21008KT 3500 BR BKN002/// BKN006/// 15/15 Q1017 REDZ  
EGDM 172150Z AUTO 21009KT 2400 -DZ BKN001/// SCT037/// 15/14 Q1017  
EGDM 172050Z AUTO 21009KT 3300 BR OVC002/// 15/14 Q1016 
EGDM 171950Z AUTO 20011KT 3700 BR BKN001/// BKN037/// BKN050/// 14/14 Q1016 
EGDM 171850Z AUTO 21012KT 5000 BR OVC002/// 14/14 Q1016 
EGDM 171750Z AUTO 20011KT 3000 BR OVC002/// 14/14 Q1016 
EGDM 171650Z AUTO 21012KT 7000 BR OVC003/// 14/13 Q1016 
EGDM 171550Z AUTO 20015KT 9999 OVC006/// 14/13 Q1016
EGDM 171450Z AUTO 22017KT 9999 OVC007/// 14/12 Q1016
EGDM 171350Z AUTO 21014KT 9999 BKN013/// 15/12 Q1016
EGDM 171250Z AUTO 21012KT 9999 BKN014/// BKN021/// 15/12 Q1016 RERA 
EGDM 171150Z AUTO 21011KT 9999 SCT027/// SCT032/// BKN040/// 16/10 Q1016
EGDM 171050Z AUTO 23013KT 9999 BKN025/// SCT070/// 15/10 Q1017 RERA 
EGDM 170950Z AUTO 23011KT 9999 FEW023/// BKN070/// 16/10 Q1016 RERA 
EGDM 170850Z AUTO 25010KT 9999 -RADZ SCT034/// BKN060/// 15/11 Q1017
EGDM 170750Z AUTO 24010KT 9999 FEW035/// BKN060/// 14/10 Q1017  
EGDM 170650Z AUTO 21007KT 9999 SCT070/// OVC120/// 12/11 Q1016 RERA 
EGDM 170550Z AUTO 22007KT 9999 -RA OVC060/// 12/10 Q1016
EGDM 170450Z AUTO 24008KT 9999 -RA FEW035/// BKN080/// 12/10 Q1016